createdAt,value
2017-10-30T00:00:56.094Z,10.52
2017-10-30T00:01:56.123Z,10.55
2017-10-30T00:02:56.043Z,10.56
2017-10-30T00:03:55.703Z,10.53
2017-10-30T00:04:56.000Z,10.56
2017-10-30T00:05:55.704Z,10.55
2017-10-30T00:06:55.680Z,10.53
2017-10-30T00:07:55.612Z,10.48
2017-10-30T00:08:55.264Z,10.48
2017-10-30T00:09:55.576Z,10.47
2017-10-30T00:10:55.884Z,10.53
2017-10-30T00:11:55.899Z,10.53
2017-10-30T00:12:55.920Z,10.53
2017-10-30T00:13:55.851Z,10.53
2017-10-30T00:14:55.800Z,10.59
2017-10-30T00:15:55.775Z,10.66
2017-10-30T00:16:55.771Z,10.6
2017-10-30T00:17:55.833Z,10.57
2017-10-30T00:18:55.368Z,10.53
2017-10-30T00:19:55.730Z,10.53
2017-10-30T00:20:55.690Z,10.59
2017-10-30T00:21:55.372Z,10.53
2017-10-30T00:22:55.273Z,10.6
2017-10-30T00:23:55.289Z,10.59
2017-10-30T00:24:55.655Z,10.75
2017-10-30T00:25:55.257Z,10.67
2017-10-30T00:26:55.190Z,10.63
2017-10-30T00:27:55.592Z,10.48
2017-10-30T00:28:55.465Z,10.55
2017-10-30T00:29:55.122Z,10.52
2017-10-30T00:30:55.479Z,10.52
2017-10-30T00:31:55.136Z,10.46
2017-10-30T00:32:55.083Z,10.46
2017-10-30T00:33:55.370Z,10.4
2017-10-30T00:34:55.015Z,10.55
2017-10-30T00:35:55.351Z,10.36
2017-10-30T00:36:54.638Z,10.36
2017-10-30T00:37:54.942Z,10.33
2017-10-30T00:38:54.918Z,10.36
2017-10-30T00:39:55.210Z,10.3
2017-10-30T00:40:55.206Z,10.29
2017-10-30T00:41:55.196Z,10.29
2017-10-30T00:42:55.221Z,10.38
2017-10-30T00:43:55.160Z,10.43
2017-10-30T00:44:55.102Z,10.44
2017-10-30T00:45:55.098Z,10.46
2017-10-30T00:46:55.178Z,10.38
2017-10-30T00:47:55.040Z,10.46
2017-10-30T00:48:55.057Z,10.47
2017-10-30T00:49:54.993Z,10.47
2017-10-30T00:50:54.667Z,10.44
2017-10-30T00:51:54.961Z,10.38
2017-10-30T00:52:54.993Z,10.41
2017-10-30T00:53:54.921Z,10.36
2017-10-30T00:54:54.561Z,10.28
2017-10-30T00:55:54.877Z,10.29
2017-10-30T00:56:54.523Z,10.34
2017-10-30T00:57:54.168Z,10.34
2017-10-30T00:58:54.881Z,10.33
2017-10-30T00:59:54.138Z,10.28
2017-10-30T01:00:54.450Z,10.3
2017-10-30T01:01:54.741Z,10.33
2017-10-30T01:02:54.061Z,10.43
2017-10-30T01:03:54.680Z,10.43
2017-10-30T01:04:54.329Z,10.46
2017-10-30T01:05:54.644Z,10.44
2017-10-30T01:06:54.616Z,10.56
2017-10-30T01:07:54.280Z,10.56
2017-10-30T01:08:54.251Z,10.53
2017-10-30T01:09:54.224Z,10.53
2017-10-30T01:10:54.213Z,10.59
2017-10-30T01:11:54.190Z,10.53
2017-10-30T01:12:54.490Z,10.6
2017-10-30T01:13:54.150Z,10.63
2017-10-30T01:14:54.121Z,10.62
2017-10-30T01:15:54.097Z,10.64
2017-10-30T01:16:54.089Z,10.67
2017-10-30T01:17:53.730Z,10.66
2017-10-30T01:18:54.031Z,10.69
2017-10-30T01:19:54.015Z,10.74
2017-10-30T01:20:53.990Z,10.66
2017-10-30T01:21:54.301Z,10.63
2017-10-30T01:22:54.264Z,10.63
2017-10-30T01:23:54.238Z,10.57
2017-10-30T01:24:53.891Z,10.66
2017-10-30T01:25:54.200Z,10.55
2017-10-30T01:26:54.188Z,10.59
2017-10-30T01:27:54.159Z,10.56
2017-10-30T01:28:53.484Z,10.52
2017-10-30T01:29:54.132Z,10.53
2017-10-30T01:30:53.760Z,10.56
2017-10-30T01:31:54.070Z,10.55
2017-10-30T01:32:53.730Z,10.53
2017-10-30T01:33:54.030Z,10.52
2017-10-30T01:34:54.004Z,10.4
2017-10-30T01:35:53.654Z,10.3
2017-10-30T01:36:53.950Z,10.34
2017-10-30T01:37:53.613Z,10.36
2017-10-30T01:38:53.916Z,10.37
2017-10-30T01:39:53.566Z,10.34
2017-10-30T01:40:53.542Z,10.33
2017-10-30T01:41:53.200Z,10.34
2017-10-30T01:42:53.832Z,10.33
2017-10-30T01:43:53.239Z,10.33
2017-10-30T01:44:53.797Z,10.4
2017-10-30T01:45:53.111Z,10.43
2017-10-30T01:46:53.418Z,10.47
2017-10-30T01:47:53.731Z,10.44
2017-10-30T01:48:53.042Z,10.46
2017-10-30T01:49:53.348Z,10.47
2017-10-30T01:50:52.999Z,10.38
2017-10-30T01:51:53.311Z,10.36
2017-10-30T01:52:52.954Z,10.33
2017-10-30T01:53:53.580Z,10.33
2017-10-30T01:54:53.559Z,10.34
2017-10-30T01:55:53.269Z,10.28
2017-10-30T01:56:53.193Z,10.37
2017-10-30T01:57:52.892Z,10.38
2017-10-30T01:58:53.470Z,10.38
2017-10-30T01:59:53.460Z,10.36
2017-10-30T02:00:53.432Z,10.37
2017-10-30T02:01:53.080Z,10.34
2017-10-30T02:02:53.060Z,10.38
2017-10-30T02:03:52.701Z,10.36
2017-10-30T02:04:53.350Z,10.23
2017-10-30T02:05:52.990Z,10.28
2017-10-30T02:06:53.290Z,10.18
2017-10-30T02:07:53.285Z,10.16
2017-10-30T02:08:53.250Z,10.19
2017-10-30T02:09:53.225Z,10.15
2017-10-30T02:10:53.205Z,10.16
2017-10-30T02:11:53.193Z,10.21
2017-10-30T02:12:52.842Z,10.15
2017-10-30T02:13:52.821Z,10.18
2017-10-30T02:14:53.112Z,10.13
2017-10-30T02:15:52.443Z,10.19
2017-10-30T02:16:52.734Z,10.19
2017-10-30T02:17:52.413Z,10.15
2017-10-30T02:18:53.021Z,10.18
2017-10-30T02:19:53.000Z,10.11
2017-10-30T02:20:52.649Z,10.21
2017-10-30T02:21:52.954Z,10.16
2017-10-30T02:22:52.291Z,10.21
2017-10-30T02:23:52.261Z,10.11
2017-10-30T02:24:52.922Z,10.16
2017-10-30T02:25:52.873Z,10.15
2017-10-30T02:26:52.915Z,10.04
2017-10-30T02:27:52.489Z,10.1
2017-10-30T02:28:52.791Z,10.18
2017-10-30T02:29:52.768Z,10.11
2017-10-30T02:30:52.746Z,10.13
2017-10-30T02:31:52.735Z,10.19
2017-10-30T02:32:52.708Z,10.03
2017-10-30T02:33:52.685Z,10.1
2017-10-30T02:34:52.680Z,10.07
2017-10-30T02:35:52.311Z,10.1
2017-10-30T02:36:52.301Z,10.15
2017-10-30T02:37:52.625Z,10.05
2017-10-30T02:38:51.926Z,10.04
2017-10-30T02:39:52.231Z,10.07
2017-10-30T02:40:52.533Z,10.08
2017-10-30T02:41:52.501Z,10.08
2017-10-30T02:42:52.158Z,10.16
2017-10-30T02:43:51.811Z,10.07
2017-10-30T02:44:51.792Z,10.1
2017-10-30T02:45:52.414Z,10.15
2017-10-30T02:46:52.397Z,10.11
2017-10-30T02:47:52.379Z,10.11
2017-10-30T02:48:52.342Z,10.08
2017-10-30T02:49:52.351Z,10.19
2017-10-30T02:50:52.002Z,10.19
2017-10-30T02:51:52.298Z,10.15
2017-10-30T02:52:51.942Z,10.25
2017-10-30T02:53:52.253Z,10.16
2017-10-30T02:54:52.262Z,10.16
2017-10-30T02:55:51.550Z,10.11
2017-10-30T02:56:52.226Z,10.11
2017-10-30T02:57:51.502Z,10.18
2017-10-30T02:58:51.837Z,10.15
2017-10-30T02:59:52.090Z,10.23
2017-10-30T03:00:52.181Z,10.11
2017-10-30T03:01:52.061Z,10.11
2017-10-30T03:02:51.801Z,10.15
2017-10-30T03:03:51.701Z,10.13
2017-10-30T03:04:52.054Z,10.18
2017-10-30T03:05:51.651Z,10.13
2017-10-30T03:06:51.399Z,10.11
2017-10-30T03:07:51.641Z,10.08
2017-10-30T03:08:51.951Z,10.13
2017-10-30T03:09:51.560Z,10.07
2017-10-30T03:10:51.851Z,10.03
2017-10-30T03:11:51.881Z,10.1
2017-10-30T03:12:51.562Z,10
2017-10-30T03:13:51.828Z,10
2017-10-30T03:14:51.810Z,10.04
2017-10-30T03:15:51.091Z,10.11
2017-10-30T03:16:51.419Z,10.07
2017-10-30T03:17:51.411Z,9.97
2017-10-30T03:18:51.669Z,10.07
2017-10-30T03:19:51.328Z,9.93
2017-10-30T03:20:51.731Z,9.98
2017-10-30T03:21:51.721Z,10.1
2017-10-30T03:22:51.588Z,10.08
2017-10-30T03:23:51.562Z,9.93
2017-10-30T03:24:51.320Z,10.01
2017-10-30T03:25:51.581Z,10.07
2017-10-30T03:26:51.600Z,10
2017-10-30T03:27:50.821Z,10.05
2017-10-30T03:28:51.130Z,10.11
2017-10-30T03:29:51.504Z,10.15
2017-10-30T03:30:51.424Z,10.11
2017-10-30T03:31:51.451Z,10.19
2017-10-30T03:32:51.376Z,10.05
2017-10-30T03:33:51.385Z,10.15
2017-10-30T03:34:51.324Z,10.08
2017-10-30T03:35:51.434Z,10.05
2017-10-30T03:36:50.961Z,10.08
2017-10-30T03:37:50.921Z,10.03
2017-10-30T03:38:50.901Z,10.05
2017-10-30T03:39:50.892Z,10
2017-10-30T03:40:51.195Z,10
2017-10-30T03:41:50.835Z,10.04
2017-10-30T03:42:50.481Z,10.08
2017-10-30T03:43:50.462Z,10.04
2017-10-30T03:44:50.761Z,10.01
2017-10-30T03:45:50.742Z,9.98
2017-10-30T03:46:51.049Z,9.93
2017-10-30T03:47:50.695Z,9.98
2017-10-30T03:48:50.665Z,9.95
2017-10-30T03:49:50.970Z,10
2017-10-30T03:50:50.633Z,10.03
2017-10-30T03:51:50.607Z,10.01
2017-10-30T03:52:50.911Z,9.97
2017-10-30T03:53:50.894Z,9.86
2017-10-30T03:54:50.538Z,9.97
2017-10-30T03:55:50.503Z,9.85
2017-10-30T03:56:50.490Z,9.83
2017-10-30T03:57:50.466Z,9.86
2017-10-30T03:58:50.463Z,9.85
2017-10-30T03:59:50.426Z,9.86
2017-10-30T04:00:50.404Z,9.9
2017-10-30T04:01:50.380Z,10.03
2017-10-30T04:02:50.356Z,9.92
2017-10-30T04:03:50.345Z,9.95
2017-10-30T04:04:50.332Z,9.87
2017-10-30T04:05:50.289Z,9.92
2017-10-30T04:06:50.611Z,9.82
2017-10-30T04:07:50.596Z,9.71
2017-10-30T04:08:50.229Z,9.78
2017-10-30T04:09:50.520Z,9.8
2017-10-30T04:10:49.873Z,9.75
2017-10-30T04:11:50.514Z,9.71
2017-10-30T04:12:50.135Z,9.78
2017-10-30T04:13:50.101Z,9.86
2017-10-30T04:14:50.413Z,9.83
2017-10-30T04:15:50.392Z,9.85
2017-10-30T04:16:50.368Z,9.92
2017-10-30T04:17:50.020Z,9.97
2017-10-30T04:18:50.313Z,10.08
2017-10-30T04:19:50.292Z,10.03
2017-10-30T04:20:50.273Z,10
2017-10-30T04:21:49.614Z,10.08
2017-10-30T04:22:50.230Z,10.04
2017-10-30T04:23:49.570Z,10.07
2017-10-30T04:24:49.855Z,10
2017-10-30T04:25:49.840Z,9.97
2017-10-30T04:26:49.832Z,10.05
2017-10-30T04:27:50.125Z,10.07
2017-10-30T04:28:50.097Z,10
2017-10-30T04:29:50.075Z,9.93
2017-10-30T04:30:49.414Z,9.92
2017-10-30T04:31:49.700Z,9.97
2017-10-30T04:32:49.685Z,9.97
2017-10-30T04:33:49.656Z,9.98
2017-10-30T04:34:49.962Z,10
2017-10-30T04:35:49.612Z,10.01
2017-10-30T04:36:49.408Z,9.9
2017-10-30T04:37:49.892Z,9.87
2017-10-30T04:38:49.540Z,9.9
2017-10-30T04:39:49.205Z,10.01
2017-10-30T04:40:49.852Z,9.98
2017-10-30T04:41:49.481Z,9.92
2017-10-30T04:42:49.784Z,9.87
2017-10-30T04:43:49.435Z,9.95
2017-10-30T04:44:49.744Z,10.04
2017-10-30T04:45:49.712Z,10
2017-10-30T04:46:49.415Z,10.07
2017-10-30T04:47:49.665Z,10
2017-10-30T04:48:49.053Z,9.93
2017-10-30T04:49:48.969Z,10
2017-10-30T04:50:49.270Z,10.07
2017-10-30T04:51:48.938Z,10.05
2017-10-30T04:52:49.232Z,9.98
2017-10-30T04:53:48.894Z,10.04
2017-10-30T04:54:49.192Z,10.03
2017-10-30T04:55:49.510Z,9.9
2017-10-30T04:56:49.142Z,10
2017-10-30T04:57:49.112Z,9.9
2017-10-30T04:58:49.423Z,10.04
2017-10-30T04:59:49.062Z,10.08
2017-10-30T05:00:49.371Z,10.01
2017-10-30T05:01:49.109Z,10.03
2017-10-30T05:02:48.682Z,10.04
2017-10-30T05:03:48.981Z,10.05
2017-10-30T05:04:48.984Z,10.04
2017-10-30T05:05:48.954Z,9.92
2017-10-30T05:06:48.922Z,10.01
2017-10-30T05:07:48.572Z,9.97
2017-10-30T05:08:48.865Z,9.93
2017-10-30T05:09:48.842Z,9.92
2017-10-30T05:10:48.819Z,9.98
2017-10-30T05:11:49.122Z,9.9
2017-10-30T05:12:49.126Z,9.83
2017-10-30T05:13:49.105Z,9.89
2017-10-30T05:14:49.064Z,9.92
2017-10-30T05:15:48.721Z,9.92
2017-10-30T05:16:48.693Z,9.82
2017-10-30T05:17:48.677Z,9.9
2017-10-30T05:18:48.962Z,9.93
2017-10-30T05:19:48.620Z,9.9
2017-10-30T05:20:48.922Z,9.87
2017-10-30T05:21:48.582Z,9.95
2017-10-30T05:22:48.882Z,9.78
2017-10-30T05:23:48.532Z,9.72
2017-10-30T05:24:48.842Z,9.71
2017-10-30T05:25:48.481Z,9.78
2017-10-30T05:26:48.784Z,9.83
2017-10-30T05:27:48.781Z,9.85
2017-10-30T05:28:48.411Z,9.86
2017-10-30T05:29:48.733Z,9.86
2017-10-30T05:30:48.761Z,9.9
2017-10-30T05:31:48.361Z,9.89
2017-10-30T05:32:48.335Z,9.9
2017-10-30T05:33:48.364Z,9.87
2017-10-30T05:34:48.440Z,9.9
2017-10-30T05:35:48.272Z,9.92
2017-10-30T05:36:47.912Z,9.97
2017-10-30T05:37:48.232Z,10.03
2017-10-30T05:38:48.190Z,10.08
2017-10-30T05:39:48.224Z,10.07
2017-10-30T05:40:48.154Z,9.95
2017-10-30T05:41:48.132Z,10.08
2017-10-30T05:42:48.411Z,9.98
2017-10-30T05:43:48.407Z,9.98
2017-10-30T05:44:48.054Z,9.93
2017-10-30T05:45:48.032Z,9.97
2017-10-30T05:46:48.024Z,9.92
2017-10-30T05:47:48.083Z,9.93
2017-10-30T05:48:47.963Z,10
2017-10-30T05:49:47.955Z,9.9
2017-10-30T05:50:48.279Z,10.03
2017-10-30T05:51:47.585Z,10.04
2017-10-30T05:52:47.884Z,9.93
2017-10-30T05:53:47.960Z,10
2017-10-30T05:54:48.186Z,10.05
2017-10-30T05:55:48.137Z,10
2017-10-30T05:56:48.111Z,10.05
2017-10-30T05:57:48.212Z,10.05
2017-10-30T05:58:48.074Z,10.15
2017-10-30T05:59:47.830Z,10.04
2017-10-30T06:00:48.096Z,10.04
2017-10-30T06:01:47.764Z,10.04
2017-10-30T06:02:48.033Z,10.01
2017-10-30T06:03:48.064Z,10.03
2017-10-30T06:04:47.607Z,10.04
2017-10-30T06:05:47.690Z,9.98
2017-10-30T06:06:47.999Z,9.92
2017-10-30T06:07:47.973Z,9.97
2017-10-30T06:08:47.873Z,9.87
2017-10-30T06:09:47.231Z,9.92
2017-10-30T06:10:47.474Z,9.86
2017-10-30T06:11:47.458Z,9.82
2017-10-30T06:12:47.105Z,9.78
2017-10-30T06:13:47.073Z,9.85
2017-10-30T06:14:47.062Z,9.75
2017-10-30T06:15:47.694Z,9.75
2017-10-30T06:16:47.011Z,9.72
2017-10-30T06:17:47.645Z,9.74
2017-10-30T06:18:47.691Z,9.8
2017-10-30T06:19:47.592Z,9.74
2017-10-30T06:20:47.556Z,9.85
2017-10-30T06:21:47.264Z,9.82
2017-10-30T06:22:47.513Z,9.87
2017-10-30T06:23:47.183Z,9.82
2017-10-30T06:24:47.484Z,9.89
2017-10-30T06:25:47.465Z,9.85
2017-10-30T06:26:47.434Z,9.9
2017-10-30T06:27:47.443Z,9.85
2017-10-30T06:28:47.061Z,9.87
2017-10-30T06:29:47.036Z,9.87
2017-10-30T06:30:47.065Z,9.82
2017-10-30T06:31:47.353Z,9.83
2017-10-30T06:32:47.292Z,9.86
2017-10-30T06:33:46.942Z,9.89
2017-10-30T06:34:46.984Z,9.85
2017-10-30T06:35:46.907Z,9.87
2017-10-30T06:36:46.943Z,9.92
2017-10-30T06:37:47.183Z,9.87
2017-10-30T06:38:46.521Z,9.95
2017-10-30T06:39:47.143Z,9.93
2017-10-30T06:40:46.781Z,9.93
2017-10-30T06:41:46.783Z,9.92
2017-10-30T06:42:46.423Z,9.9
2017-10-30T06:43:46.732Z,9.97
2017-10-30T06:44:46.712Z,10
2017-10-30T06:45:47.013Z,10.08
2017-10-30T06:46:46.652Z,10.1
2017-10-30T06:47:46.955Z,10.08
2017-10-30T06:48:46.622Z,10.01
2017-10-30T06:49:46.271Z,10
2017-10-30T06:50:46.882Z,10
2017-10-30T06:51:46.553Z,9.95
2017-10-30T06:52:46.853Z,10.15
2017-10-30T06:53:46.809Z,10.1
2017-10-30T06:54:46.814Z,10.15
2017-10-30T06:55:46.783Z,10.23
2017-10-30T06:56:46.444Z,10.23
2017-10-30T06:57:46.733Z,10.18
2017-10-30T06:58:46.399Z,10.25
2017-10-30T06:59:46.693Z,10.18
2017-10-30T07:00:46.343Z,10.23
2017-10-30T07:01:46.643Z,10.21
2017-10-30T07:02:46.305Z,10.21
2017-10-30T07:03:46.603Z,10.13
2017-10-30T07:04:46.251Z,10.15
2017-10-30T07:05:46.572Z,10.19
2017-10-30T07:06:46.233Z,10.13
2017-10-30T07:07:46.182Z,10.07
2017-10-30T07:08:45.833Z,10.03
2017-10-30T07:09:46.466Z,10.07
2017-10-30T07:10:46.124Z,10.07
2017-10-30T07:11:46.434Z,9.98
2017-10-30T07:12:46.073Z,10.04
2017-10-30T07:13:46.383Z,10.16
2017-10-30T07:14:46.355Z,10.11
2017-10-30T07:15:46.012Z,10.18
2017-10-30T07:16:46.325Z,10.15
2017-10-30T07:17:46.325Z,10.11
2017-10-30T07:18:46.311Z,10.11
2017-10-30T07:19:45.983Z,10.15
2017-10-30T07:20:46.226Z,10.18
2017-10-30T07:21:46.244Z,10.21
2017-10-30T07:22:45.840Z,10.22
2017-10-30T07:23:45.511Z,10.28
2017-10-30T07:24:46.112Z,10.22
2017-10-30T07:25:46.103Z,10.34
2017-10-30T07:26:46.088Z,10.29
2017-10-30T07:27:45.531Z,10.26
2017-10-30T07:28:46.062Z,10.3
2017-10-30T07:29:46.016Z,10.34
2017-10-30T07:30:46.037Z,10.4
2017-10-30T07:31:45.653Z,10.41
2017-10-30T07:32:45.634Z,10.36
2017-10-30T07:33:45.604Z,10.38
2017-10-30T07:34:45.915Z,10.43
2017-10-30T07:35:45.894Z,10.55
2017-10-30T07:36:45.555Z,10.47
2017-10-30T07:37:45.850Z,10.59
2017-10-30T07:38:45.820Z,10.63
2017-10-30T07:39:45.905Z,10.69
2017-10-30T07:40:45.875Z,10.8
2017-10-30T07:41:45.793Z,10.89
2017-10-30T07:42:45.827Z,10.87
2017-10-30T07:43:45.799Z,10.78
2017-10-30T07:44:45.375Z,10.9
2017-10-30T07:45:45.793Z,10.78
2017-10-30T07:46:45.666Z,10.78
2017-10-30T07:47:45.673Z,10.78
2017-10-30T07:48:45.616Z,10.8
2017-10-30T07:49:45.576Z,10.82
2017-10-30T07:50:45.569Z,10.84
2017-10-30T07:51:45.213Z,10.75
2017-10-30T07:52:45.665Z,10.82
2017-10-30T07:53:45.177Z,10.93
2017-10-30T07:54:45.493Z,10.95
2017-10-30T07:55:45.445Z,10.84
2017-10-30T07:56:45.105Z,10.99
2017-10-30T07:57:45.387Z,10.95
2017-10-30T07:58:45.422Z,11.05
2017-10-30T07:59:45.395Z,10.92
2017-10-30T08:00:45.438Z,11
2017-10-30T08:01:44.995Z,10.93
2017-10-30T08:02:45.423Z,10.98
2017-10-30T08:03:44.969Z,11.1
2017-10-30T08:04:45.304Z,11.51
2017-10-30T08:05:45.247Z,11.97
2017-10-30T08:06:45.267Z,12.57
2017-10-30T08:07:45.218Z,12.92
2017-10-30T08:08:45.235Z,13.56
2017-10-30T08:09:45.154Z,14.03
2017-10-30T08:10:45.141Z,14.18
2017-10-30T08:11:44.794Z,14.13
2017-10-30T08:12:45.095Z,14.1
2017-10-30T08:13:45.085Z,13.99
2017-10-30T08:14:45.062Z,13.92
2017-10-30T08:15:45.049Z,13.77
2017-10-30T08:16:44.714Z,13.55
2017-10-30T08:17:45.046Z,13.41
2017-10-30T08:18:44.659Z,13.31
2017-10-30T08:19:44.975Z,13.14
2017-10-30T08:20:45.015Z,13
2017-10-30T08:21:44.934Z,12.79
2017-10-30T08:22:44.976Z,12.79
2017-10-30T08:23:44.610Z,12.64
2017-10-30T08:24:44.657Z,12.57
2017-10-30T08:25:44.536Z,12.34
2017-10-30T08:26:44.832Z,12.31
2017-10-30T08:27:44.508Z,12.34
2017-10-30T08:28:44.797Z,12.31
2017-10-30T08:29:44.465Z,12.31
2017-10-30T08:30:44.495Z,12.34
2017-10-30T08:31:44.425Z,12.31
2017-10-30T08:32:44.425Z,12.35
2017-10-30T08:33:44.391Z,12.31
2017-10-30T08:34:44.454Z,12.24
2017-10-30T08:35:44.014Z,12.17
2017-10-30T08:36:44.744Z,12.02
2017-10-30T08:37:44.293Z,11.98
2017-10-30T08:38:44.607Z,12.03
2017-10-30T08:39:44.573Z,11.99
2017-10-30T08:40:44.624Z,11.97
2017-10-30T08:41:44.234Z,11.91
2017-10-30T08:42:44.615Z,11.86
2017-10-30T08:43:43.846Z,11.83
2017-10-30T08:44:44.485Z,11.83
2017-10-30T08:45:44.529Z,11.97
2017-10-30T08:46:44.197Z,11.87
2017-10-30T08:47:44.473Z,11.91
2017-10-30T08:48:44.416Z,11.89
2017-10-30T08:49:44.425Z,11.98
2017-10-30T08:50:44.448Z,11.91
2017-10-30T08:51:44.385Z,11.91
2017-10-30T08:52:44.084Z,11.95
2017-10-30T08:53:44.404Z,11.84
2017-10-30T08:54:44.384Z,11.83
2017-10-30T08:55:44.304Z,11.87
2017-10-30T08:56:43.994Z,11.91
2017-10-30T08:57:44.267Z,11.91
2017-10-30T08:58:44.191Z,11.91
2017-10-30T08:59:44.273Z,12.16
2017-10-30T09:00:44.216Z,12.45
2017-10-30T09:01:43.802Z,13.01
2017-10-30T09:02:44.208Z,13.74
2017-10-30T09:03:44.237Z,14.35
2017-10-30T09:04:44.108Z,15
2017-10-30T09:05:44.109Z,15.47
2017-10-30T09:06:43.723Z,15.98
2017-10-30T09:07:43.374Z,16.45
2017-10-30T09:08:43.704Z,16.91
2017-10-30T09:09:44.055Z,17.06
2017-10-30T09:10:43.653Z,17.05
2017-10-30T09:11:43.643Z,17.08
2017-10-30T09:12:43.947Z,17.16
2017-10-30T09:13:43.615Z,17.21
2017-10-30T09:14:43.924Z,17.12
2017-10-30T09:15:43.584Z,16.83
2017-10-30T09:16:43.907Z,16.61
2017-10-30T09:17:43.557Z,16.36
2017-10-30T09:18:43.884Z,16.07
2017-10-30T09:19:43.884Z,15.75
2017-10-30T09:20:43.513Z,15.44
2017-10-30T09:21:43.184Z,15.1
2017-10-30T09:22:43.903Z,15.06
2017-10-30T09:23:43.142Z,14.68
2017-10-30T09:24:43.502Z,14.4
2017-10-30T09:25:43.849Z,14.2
2017-10-30T09:26:43.743Z,13.95
2017-10-30T09:27:43.390Z,13.78
2017-10-30T09:28:43.713Z,13.75
2017-10-30T09:29:43.684Z,13.65
2017-10-30T09:30:43.676Z,13.55
2017-10-30T09:31:43.324Z,13.45
2017-10-30T09:32:43.317Z,13.52
2017-10-30T09:33:43.614Z,13.48
2017-10-30T09:34:43.288Z,13.49
2017-10-30T09:35:43.603Z,13.59
2017-10-30T09:36:43.242Z,13.52
2017-10-30T09:37:43.534Z,13.45
2017-10-30T09:38:43.532Z,13.49
2017-10-30T09:39:43.488Z,13.37
2017-10-30T09:40:43.479Z,13.42
2017-10-30T09:41:43.473Z,13.55
2017-10-30T09:42:43.125Z,13.74
2017-10-30T09:43:43.433Z,14.28
2017-10-30T09:44:43.424Z,14.66
2017-10-30T09:45:43.076Z,15.14
2017-10-30T09:46:43.076Z,15.53
2017-10-30T09:47:43.363Z,15.76
2017-10-30T09:48:43.026Z,16.21
2017-10-30T09:49:43.334Z,16.61
2017-10-30T09:50:43.304Z,16.74
2017-10-30T09:51:43.303Z,16.81
2017-10-30T09:52:43.313Z,16.63
2017-10-30T09:53:43.271Z,16.54
2017-10-30T09:54:43.255Z,16.15
2017-10-30T09:55:43.236Z,16.02
2017-10-30T09:56:43.232Z,16
2017-10-30T09:57:43.215Z,15.9
2017-10-30T09:58:43.195Z,15.64
2017-10-30T09:59:43.192Z,15.5
2017-10-30T10:00:43.181Z,15.44
2017-10-30T10:01:43.155Z,15.32
2017-10-30T10:02:42.810Z,15.24
2017-10-30T10:03:43.130Z,15.29
2017-10-30T10:04:43.114Z,15.29
2017-10-30T10:05:43.086Z,15.16
2017-10-30T10:06:43.076Z,15.17
2017-10-30T10:07:43.054Z,15.17
2017-10-30T10:08:43.032Z,15.12
2017-10-30T10:09:42.687Z,15.09
2017-10-30T10:10:43.008Z,15.03
2017-10-30T10:11:42.993Z,14.89
2017-10-30T10:12:42.976Z,15.06
2017-10-30T10:13:42.948Z,15.12
2017-10-30T10:14:42.943Z,15.07
2017-10-30T10:15:42.903Z,15.1
2017-10-30T10:16:42.903Z,15.17
2017-10-30T10:17:42.233Z,15.25
2017-10-30T10:18:42.533Z,15.24
2017-10-30T10:19:42.845Z,15.24
2017-10-30T10:20:42.834Z,15.32
2017-10-30T10:21:42.818Z,15.35
2017-10-30T10:22:42.792Z,15.43
2017-10-30T10:23:42.792Z,15.49
2017-10-30T10:24:42.755Z,15.46
2017-10-30T10:25:42.736Z,15.46
2017-10-30T10:26:42.392Z,15.53
2017-10-30T10:27:42.383Z,15.46
2017-10-30T10:28:42.370Z,15.27
2017-10-30T10:29:42.657Z,15.16
2017-10-30T10:30:42.642Z,15.1
2017-10-30T10:31:42.632Z,15.06
2017-10-30T10:32:42.623Z,15.09
2017-10-30T10:33:42.278Z,15.13
2017-10-30T10:34:42.252Z,15.17
2017-10-30T10:35:42.234Z,15.2
2017-10-30T10:36:42.250Z,15.1
2017-10-30T10:37:42.531Z,15.22
2017-10-30T10:38:42.185Z,15.31
2017-10-30T10:39:42.493Z,15.24
2017-10-30T10:40:42.153Z,15.21
2017-10-30T10:41:42.461Z,15.21
2017-10-30T10:42:42.215Z,15.06
2017-10-30T10:43:42.143Z,14.77
2017-10-30T10:44:42.396Z,14.69
2017-10-30T10:45:42.383Z,14.63
2017-10-30T10:46:42.053Z,14.75
2017-10-30T10:47:42.354Z,15.12
2017-10-30T10:48:42.352Z,15.49
2017-10-30T10:49:42.001Z,15.8
2017-10-30T10:50:42.308Z,15.95
2017-10-30T10:51:42.283Z,15.92
2017-10-30T10:52:42.283Z,16.05
2017-10-30T10:53:42.265Z,16.36
2017-10-30T10:54:41.904Z,16.75
2017-10-30T10:55:42.234Z,16.94
2017-10-30T10:56:41.892Z,17.24
2017-10-30T10:57:42.229Z,17.19
2017-10-30T10:58:42.192Z,17.34
2017-10-30T10:59:42.170Z,17.31
2017-10-30T11:00:42.153Z,17.48
2017-10-30T11:01:42.132Z,17.55
2017-10-30T11:02:42.123Z,17.74
2017-10-30T11:03:42.122Z,17.93
2017-10-30T11:04:41.774Z,17.96
2017-10-30T11:05:42.078Z,18.01
2017-10-30T11:06:42.179Z,17.92
2017-10-30T11:07:41.736Z,17.7
2017-10-30T11:08:41.724Z,17.8
2017-10-30T11:09:42.016Z,17.8
2017-10-30T11:10:42.030Z,17.71
2017-10-30T11:11:41.690Z,17.86
2017-10-30T11:12:41.680Z,18.07
2017-10-30T11:13:41.650Z,18.37
2017-10-30T11:14:41.738Z,18.3
2017-10-30T11:15:41.967Z,18.37
2017-10-30T11:16:41.622Z,18.48
2017-10-30T11:17:41.605Z,18.6
2017-10-30T11:18:42.004Z,18.73
2017-10-30T11:19:41.916Z,18.65
2017-10-30T11:20:41.886Z,18.75
2017-10-30T11:21:41.871Z,18.82
2017-10-30T11:22:41.954Z,18.81
2017-10-30T11:23:41.560Z,19.04
2017-10-30T11:24:41.870Z,19.15
2017-10-30T11:25:41.926Z,19.18
2017-10-30T11:26:41.841Z,19.14
2017-10-30T11:27:41.907Z,19.23
2017-10-30T11:28:41.801Z,19.41
2017-10-30T11:29:41.780Z,19.41
2017-10-30T11:30:41.778Z,19.25
2017-10-30T11:31:41.791Z,18.67
2017-10-30T11:32:41.745Z,18.32
2017-10-30T11:33:41.804Z,18.08
2017-10-30T11:34:41.715Z,18.02
2017-10-30T11:35:41.784Z,17.98
2017-10-30T11:36:41.685Z,17.86
2017-10-30T11:37:41.680Z,17.75
2017-10-30T11:38:41.658Z,17.86
2017-10-30T11:39:41.016Z,18.08
2017-10-30T11:40:41.622Z,18.04
2017-10-30T11:41:41.294Z,18.02
2017-10-30T11:42:41.271Z,18
2017-10-30T11:43:41.596Z,17.96
2017-10-30T11:44:41.583Z,17.95
2017-10-30T11:45:41.638Z,17.86
2017-10-30T11:46:41.541Z,17.87
2017-10-30T11:47:40.901Z,17.82
2017-10-30T11:48:41.791Z,17.92
2017-10-30T11:49:41.184Z,18.14
2017-10-30T11:50:41.488Z,18.38
2017-10-30T11:51:41.489Z,18.5
2017-10-30T11:52:41.461Z,18.44
2017-10-30T11:53:41.442Z,18.37
2017-10-30T11:54:41.443Z,18.25
2017-10-30T11:55:40.777Z,17.89
2017-10-30T11:56:41.407Z,17.3
2017-10-30T11:57:41.090Z,16.94
2017-10-30T11:58:41.051Z,16.64
2017-10-30T11:59:41.052Z,16.63
2017-10-30T12:00:41.347Z,16.28
2017-10-30T12:01:41.314Z,16.07
2017-10-30T12:02:41.321Z,16.04
2017-10-30T12:03:40.980Z,16.04
2017-10-30T12:04:41.285Z,15.9
2017-10-30T12:05:40.930Z,15.6
2017-10-30T12:06:40.928Z,15.43
2017-10-30T12:07:41.243Z,15.27
2017-10-30T12:08:40.888Z,15.32
2017-10-30T12:09:41.221Z,15.47
2017-10-30T12:10:41.183Z,15.35
2017-10-30T12:11:40.836Z,15.43
2017-10-30T12:12:41.153Z,15.44
2017-10-30T12:13:41.142Z,15.54
2017-10-30T12:14:40.793Z,15.75
2017-10-30T12:15:40.762Z,15.77
2017-10-30T12:16:41.110Z,16.07
2017-10-30T12:17:40.747Z,16.31
2017-10-30T12:18:40.737Z,16.53
2017-10-30T12:19:40.712Z,16.94
2017-10-30T12:20:41.013Z,17.03
2017-10-30T12:21:40.995Z,17.29
2017-10-30T12:22:40.998Z,17.49
2017-10-30T12:23:40.648Z,17.52
2017-10-30T12:24:40.734Z,17.54
2017-10-30T12:25:40.963Z,17.8
2017-10-30T12:26:40.906Z,18.01
2017-10-30T12:27:40.922Z,18.18
2017-10-30T12:28:40.250Z,18.23
2017-10-30T12:29:40.903Z,18.25
2017-10-30T12:30:40.854Z,18.26
2017-10-30T12:31:40.890Z,18.22
2017-10-30T12:32:40.836Z,17.86
2017-10-30T12:33:40.502Z,17.4
2017-10-30T12:34:40.469Z,17.42
2017-10-30T12:35:40.787Z,17.49
2017-10-30T12:36:40.772Z,17.64
2017-10-30T12:37:40.743Z,17.75
2017-10-30T12:38:40.743Z,17.98
2017-10-30T12:39:40.747Z,18.11
2017-10-30T12:40:40.721Z,18.38
2017-10-30T12:41:40.698Z,18.3
2017-10-30T12:42:40.680Z,18.59
2017-10-30T12:43:40.654Z,18.47
2017-10-30T12:44:40.652Z,18.58
2017-10-30T12:45:40.352Z,18.2
2017-10-30T12:46:40.615Z,18.41
2017-10-30T12:47:40.596Z,18.38
2017-10-30T12:48:40.358Z,18.58
2017-10-30T12:49:40.571Z,18.47
2017-10-30T12:50:40.567Z,18.3
2017-10-30T12:51:40.593Z,18.19
2017-10-30T12:52:40.203Z,17.95
2017-10-30T12:53:40.534Z,17.4
2017-10-30T12:54:40.502Z,17.31
2017-10-30T12:55:40.492Z,17.45
2017-10-30T12:56:40.485Z,17.65
2017-10-30T12:57:40.168Z,17.77
2017-10-30T12:58:40.431Z,17.45
2017-10-30T12:59:40.433Z,17.3
2017-10-30T13:00:40.409Z,17.31
2017-10-30T13:01:40.501Z,17.29